createdAt,value
2019-02-18T00:01:55.438Z,31.10
2019-02-18T00:04:26.399Z,28.83
2019-02-18T00:06:57.070Z,29.17
2019-02-18T00:09:27.769Z,30.97
2019-02-18T00:11:58.452Z,29.57
2019-02-18T00:14:29.151Z,30.87
2019-02-18T00:16:59.806Z,32.10
2019-02-18T00:19:30.579Z,30.97
2019-02-18T00:22:01.282Z,31.97
2019-02-18T00:24:31.995Z,30.47
2019-02-18T00:27:02.718Z,32.33
2019-02-18T00:29:33.438Z,31.87
2019-02-18T00:32:04.150Z,31.70
2019-02-18T00:34:34.975Z,30.80
2019-02-18T00:37:05.616Z,32.00
2019-02-18T00:39:46.227Z,32.27
2019-02-18T00:42:28.340Z,31.83
2019-02-18T00:45:09.660Z,32.37
2019-02-18T00:47:48.134Z,31.50
2019-02-18T00:50:19.206Z,30.10
2019-02-18T00:52:50.433Z,29.73
2019-02-18T00:55:21.123Z,30.53
2019-02-18T00:57:52.549Z,30.43
2019-02-18T01:00:23.306Z,30.40
2019-02-18T01:02:53.995Z,33.00
2019-02-18T01:05:24.696Z,31.13
2019-02-18T01:07:55.544Z,32.87
2019-02-18T01:10:26.259Z,33.60
2019-02-18T01:12:56.918Z,33.20
2019-02-18T01:15:27.540Z,33.47
2019-02-18T01:17:58.381Z,33.13
2019-02-18T01:20:29.066Z,33.77
2019-02-18T01:22:59.752Z,34.20
2019-02-18T01:25:30.469Z,34.47
2019-02-18T01:28:01.157Z,34.70
2019-02-18T01:30:31.860Z,34.67
2019-02-18T01:33:02.492Z,35.77
2019-02-18T01:35:33.154Z,35.20
2019-02-18T01:38:05.960Z,35.53
2019-02-18T01:40:36.664Z,36.23
2019-02-18T01:43:07.313Z,34.93
2019-02-18T01:45:38.800Z,35.17
2019-02-18T01:48:09.457Z,34.77
2019-02-18T01:50:40.231Z,33.67
2019-02-18T01:53:10.843Z,32.63
2019-02-18T01:55:41.685Z,34.33
2019-02-18T01:58:12.477Z,33.43
2019-02-18T02:00:44.716Z,35.60
2019-02-18T02:03:15.428Z,34.57
2019-02-18T02:05:46.044Z,34.67
2019-02-18T02:08:16.695Z,32.60
2019-02-18T02:10:47.354Z,31.27
2019-02-18T02:13:30.347Z,33.20
2019-02-18T02:16:03.021Z,33.23
2019-02-18T02:18:33.746Z,31.83
2019-02-18T02:21:04.520Z,31.03
2019-02-18T02:23:35.316Z,34.40
2019-02-18T02:26:06.044Z,32.73
2019-02-18T02:28:36.937Z,32.77
2019-02-18T02:31:07.754Z,33.73
2019-02-18T02:33:41.311Z,33.40
2019-02-18T02:36:11.945Z,32.10
2019-02-18T02:38:42.866Z,32.63
2019-02-18T02:41:13.504Z,32.83
2019-02-18T02:43:45.157Z,33.90
2019-02-18T02:46:15.823Z,31.30
2019-02-18T02:48:47.842Z,32.80
2019-02-18T02:51:19.090Z,33.03
2019-02-18T02:53:49.817Z,33.17
2019-02-18T02:56:20.520Z,33.30
2019-02-18T02:58:51.199Z,33.33
2019-02-18T03:01:23.962Z,31.67
2019-02-18T03:03:54.712Z,31.83
2019-02-18T03:06:25.418Z,32.07
2019-02-18T03:08:56.069Z,34.40
2019-02-18T03:11:26.746Z,33.50
2019-02-18T03:13:57.405Z,33.17
2019-02-18T03:16:28.039Z,33.90
2019-02-18T03:18:58.761Z,34.33
2019-02-18T03:21:29.383Z,34.97
2019-02-18T03:24:00.149Z,32.83
2019-02-18T03:26:31.664Z,34.43
2019-02-18T03:30:42.713Z,32.87
2019-02-18T03:33:15.734Z,33.17
2019-02-18T03:35:46.424Z,34.67
2019-02-18T03:38:17.097Z,32.63
2019-02-18T03:40:47.722Z,33.43
2019-02-18T03:43:18.403Z,35.90
2019-02-18T03:45:49.185Z,33.90
2019-02-18T03:48:20.025Z,34.07
2019-02-18T03:50:50.666Z,34.00
2019-02-18T03:53:21.337Z,35.17
2019-02-18T03:55:52.237Z,33.50
2019-02-18T03:58:22.930Z,32.87
2019-02-18T04:00:53.658Z,32.70
2019-02-18T04:03:24.343Z,33.13
2019-02-18T04:05:55.081Z,31.80
2019-02-18T04:08:25.725Z,33.40
2019-02-18T04:10:56.401Z,36.23
2019-02-18T04:13:27.035Z,33.57
2019-02-18T04:15:57.865Z,34.17
2019-02-18T04:18:28.563Z,37.03
2019-02-18T04:20:59.305Z,58.77
2019-02-18T04:23:29.999Z,83.87
2019-02-18T04:26:00.673Z,73.57
2019-02-18T04:28:31.316Z,57.83
2019-02-18T04:31:02.072Z,48.30
2019-02-18T04:33:32.714Z,38.57
2019-02-18T04:36:03.414Z,37.97
2019-02-18T04:38:34.229Z,37.63
2019-02-18T04:41:05.064Z,44.07
2019-02-18T04:43:36.216Z,57.10
2019-02-18T04:46:06.922Z,54.00
2019-02-18T04:48:38.480Z,56.60
2019-02-18T04:51:09.224Z,54.10
2019-02-18T04:53:42.178Z,48.73
2019-02-18T04:56:12.828Z,42.23
2019-02-18T04:58:43.488Z,38.13
2019-02-18T05:01:14.172Z,37.97
2019-02-18T05:03:48.368Z,34.53
2019-02-18T05:06:19.054Z,37.17
2019-02-18T05:08:49.756Z,36.33
2019-02-18T05:11:21.215Z,37.20
2019-02-18T05:13:51.876Z,56.93
2019-02-18T05:16:22.519Z,81.10
2019-02-18T05:18:54.032Z,153.20
2019-02-18T05:21:25.551Z,174.90
2019-02-18T05:23:56.269Z,134.87
2019-02-18T05:26:26.929Z,117.87
2019-02-18T05:28:57.664Z,94.43
2019-02-18T05:31:28.311Z,77.20
2019-02-18T05:33:59.010Z,83.20
2019-02-18T05:36:29.850Z,134.23
2019-02-18T05:39:00.701Z,92.63
2019-02-18T05:41:31.584Z,71.90
2019-02-18T05:44:02.302Z,49.50
2019-02-18T05:46:33.570Z,45.17
2019-02-18T05:49:04.230Z,39.87
2019-02-18T05:51:35.727Z,40.20
2019-02-18T05:54:06.410Z,35.53
2019-02-18T05:56:37.615Z,31.07
2019-02-18T05:59:08.311Z,32.93
2019-02-18T06:01:39.107Z,33.03
2019-02-18T06:04:09.748Z,32.70
2019-02-18T06:06:41.714Z,31.77
2019-02-18T06:09:12.437Z,30.80
2019-02-18T06:11:43.116Z,35.63
2019-02-18T06:14:13.821Z,31.97
2019-02-18T06:16:44.459Z,33.07
2019-02-18T06:19:15.277Z,32.00
2019-02-18T06:21:47.880Z,34.57
2019-02-18T06:24:18.579Z,32.87
2019-02-18T06:26:49.200Z,32.20
2019-02-18T06:29:19.878Z,31.77
2019-02-18T06:31:50.512Z,30.30
2019-02-18T06:34:21.217Z,33.03
2019-02-18T06:36:51.840Z,32.00
2019-02-18T06:39:22.527Z,29.40
2019-02-18T06:41:53.183Z,32.77
2019-02-18T06:44:33.402Z,31.40
2019-02-18T06:47:11.144Z,31.20
2019-02-18T06:49:41.834Z,30.73
2019-02-18T06:52:12.576Z,31.00
2019-02-18T06:54:45.012Z,30.77
2019-02-18T06:57:26.833Z,30.00
2019-02-18T07:00:01.050Z,30.47
2019-02-18T07:02:55.596Z,30.93
2019-02-18T07:05:44.110Z,28.97
2019-02-18T07:08:37.893Z,29.50
2019-02-18T07:11:34.424Z,31.23
2019-02-18T07:14:05.102Z,29.83
2019-02-18T07:16:35.771Z,33.93
2019-02-18T07:19:06.401Z,33.53
2019-02-18T07:21:37.272Z,32.23
2019-02-18T07:24:08.030Z,30.97
2019-02-18T07:26:39.673Z,30.67
2019-02-18T07:29:10.315Z,32.17
2019-02-18T07:31:42.112Z,32.00
2019-02-18T07:34:12.870Z,32.17
2019-02-18T07:36:46.805Z,31.90
2019-02-18T07:39:17.460Z,30.53
2019-02-18T07:41:48.244Z,29.80
2019-02-18T07:44:18.883Z,30.50
2019-02-18T07:46:49.539Z,29.90
2019-02-18T07:49:20.219Z,30.10
2019-02-18T07:51:51.572Z,27.20
2019-02-18T07:54:22.224Z,26.60
2019-02-18T07:56:52.857Z,29.70
2019-02-18T07:59:23.657Z,29.07
2019-02-18T08:01:54.290Z,28.97
2019-02-18T08:04:24.959Z,26.33
2019-02-18T08:06:55.578Z,26.33
2019-02-18T08:09:26.228Z,23.00
2019-02-18T08:11:56.918Z,18.37
2019-02-18T08:14:27.603Z,17.83
2019-02-18T08:16:58.313Z,19.30
2019-02-18T08:19:28.962Z,17.77
2019-02-18T08:21:59.625Z,18.10
2019-02-18T08:24:30.387Z,19.40
2019-02-18T08:27:01.070Z,18.50
2019-02-18T08:29:31.691Z,19.50
2019-02-18T08:32:02.377Z,18.17
2019-02-18T08:34:33.023Z,18.23
2019-02-18T08:37:03.691Z,17.10
2019-02-18T08:39:34.310Z,17.60
2019-02-18T08:42:05.014Z,18.20
2019-02-18T08:44:35.663Z,17.30
2019-02-18T08:47:06.352Z,17.03
2019-02-18T08:49:37.050Z,17.23
2019-02-18T08:52:07.724Z,16.83
2019-02-18T08:54:38.837Z,16.43
2019-02-18T08:57:09.517Z,17.60
2019-02-18T08:59:40.211Z,17.20
2019-02-18T09:02:10.814Z,17.27
2019-02-18T09:04:41.457Z,16.83
2019-02-18T09:07:12.087Z,18.17
2019-02-18T09:09:45.118Z,18.27
2019-02-18T09:12:15.802Z,17.73
2019-02-18T09:14:47.056Z,18.60
2019-02-18T09:17:17.686Z,17.20
2019-02-18T09:19:48.550Z,17.10
2019-02-18T09:22:47.170Z,17.53
2019-02-18T09:25:32.799Z,17.50
2019-02-18T09:28:03.541Z,17.50
2019-02-18T09:30:37.329Z,18.03
2019-02-18T09:33:07.975Z,18.07
2019-02-18T09:35:38.610Z,16.70
2019-02-18T09:38:09.449Z,17.07
2019-02-18T09:43:12.517Z,17.73
2019-02-18T09:45:44.797Z,16.73
2019-02-18T09:48:15.590Z,16.83
2019-02-18T09:50:46.762Z,18.13
2019-02-18T09:53:17.442Z,17.17
2019-02-18T09:55:48.717Z,17.63
2019-02-18T09:58:19.431Z,17.60
2019-02-18T10:00:51.588Z,17.37
2019-02-18T10:03:31.601Z,18.07
2019-02-18T10:05:54.630Z,17.40
2019-02-18T10:08:25.306Z,17.87
2019-02-18T10:10:56.453Z,19.17
2019-02-18T10:13:27.163Z,17.00
2019-02-18T10:15:57.825Z,17.77
2019-02-18T10:18:28.451Z,18.37
2019-02-18T10:20:59.161Z,17.67
2019-02-18T10:23:29.801Z,17.90
2019-02-18T10:26:00.472Z,18.13
2019-02-18T10:28:31.148Z,17.53
2019-02-18T10:31:01.823Z,15.67
2019-02-18T10:33:32.549Z,17.30
2019-02-18T10:36:03.268Z,17.00
2019-02-18T10:38:33.987Z,17.43
2019-02-18T10:41:07.181Z,18.83
2019-02-18T10:43:37.070Z,23.83
2019-02-18T10:46:07.768Z,18.87
2019-02-18T10:48:39.256Z,19.63
2019-02-18T10:51:10.014Z,19.10
2019-02-18T10:53:43.031Z,17.77
2019-02-18T10:56:13.786Z,18.17
2019-02-18T10:58:44.495Z,16.47
2019-02-18T11:01:15.116Z,19.27
2019-02-18T11:03:46.967Z,19.83
2019-02-18T11:06:17.675Z,18.07
2019-02-18T11:08:48.691Z,18.10
2019-02-18T11:11:20.080Z,18.27
2019-02-18T11:13:51.304Z,17.20
2019-02-18T11:16:21.975Z,16.60
2019-02-18T11:18:53.806Z,18.40
2019-02-18T11:21:25.426Z,16.97
2019-02-18T11:23:56.108Z,17.80
2019-02-18T11:26:26.784Z,16.97
2019-02-18T11:28:57.474Z,17.27
2019-02-18T11:31:28.436Z,20.03
2019-02-18T11:33:59.097Z,18.87
2019-02-18T11:36:29.779Z,16.70
2019-02-18T11:39:01.799Z,17.63
2019-02-18T11:41:32.627Z,18.13
2019-02-18T11:44:03.561Z,16.53
2019-02-18T11:46:34.264Z,17.43
2019-02-18T11:49:04.951Z,16.47
2019-02-18T11:51:35.575Z,16.20
2019-02-18T11:54:06.262Z,15.77
2019-02-18T11:56:37.370Z,16.40
2019-02-18T11:59:08.184Z,15.33
2019-02-18T12:01:38.986Z,17.10
2019-02-18T12:04:09.668Z,16.30
2019-02-18T12:06:41.207Z,18.33
2019-02-18T12:09:19.410Z,15.67
2019-02-18T12:11:50.069Z,15.23
2019-02-18T12:14:20.736Z,13.97
2019-02-18T12:16:51.416Z,13.30
2019-02-18T12:19:22.114Z,14.10
2019-02-18T12:21:53.622Z,14.33
2019-02-18T12:24:24.307Z,13.73
2019-02-18T12:26:55.447Z,12.63
2019-02-18T12:29:26.881Z,13.93
2019-02-18T12:31:58.325Z,12.77
2019-02-18T12:34:29.042Z,12.93
2019-02-18T12:36:59.716Z,12.57
2019-02-18T12:39:30.385Z,12.47
2019-02-18T12:42:01.099Z,12.77
2019-02-18T12:44:31.760Z,14.07
2019-02-18T12:47:02.415Z,12.10
2019-02-18T12:49:33.441Z,12.80
2019-02-18T12:52:04.078Z,13.60
2019-02-18T12:54:34.766Z,12.57
2019-02-18T12:57:05.481Z,12.37
2019-02-18T12:59:36.298Z,11.30
2019-02-18T13:02:07.377Z,11.63
2019-02-18T13:04:38.346Z,10.50
2019-02-18T13:07:09.029Z,13.20
2019-02-18T13:09:41.051Z,12.73
2019-02-18T13:12:11.702Z,12.97
2019-02-18T13:14:42.505Z,12.47
2019-02-18T13:17:13.184Z,11.60
2019-02-18T13:19:44.429Z,16.47
2019-02-18T13:22:15.324Z,20.50
2019-02-18T13:24:46.504Z,12.23
2019-02-18T13:27:17.271Z,17.20
2019-02-18T13:29:48.008Z,15.10
2019-02-18T13:32:18.783Z,13.97
2019-02-18T13:34:49.403Z,13.20
2019-02-18T13:37:20.097Z,10.23
2019-02-18T13:39:51.336Z,10.53
2019-02-18T13:42:21.985Z,12.97
2019-02-18T13:44:52.645Z,11.87
2019-02-18T13:47:23.499Z,13.97
2019-02-18T13:49:54.167Z,10.63
2019-02-18T13:52:24.961Z,11.90
2019-02-18T13:54:55.678Z,12.57
2019-02-18T13:57:26.373Z,18.17
2019-02-18T13:59:57.325Z,12.13
2019-02-18T14:02:28.158Z,15.43
2019-02-18T14:04:59.219Z,12.47
2019-02-18T14:07:30.134Z,16.50
2019-02-18T14:10:01.058Z,16.00
2019-02-18T14:12:31.715Z,16.13
2019-02-18T14:15:03.163Z,15.77
2019-02-18T14:17:33.821Z,15.43
2019-02-18T14:20:04.732Z,16.57
2019-02-18T14:22:36.320Z,16.27
2019-02-18T14:25:07.712Z,16.50
2019-02-18T14:27:40.424Z,20.10
2019-02-18T14:30:13.314Z,16.60
2019-02-18T14:32:44.071Z,17.50
2019-02-18T14:35:16.301Z,16.00
2019-02-18T14:37:47.102Z,15.53
2019-02-18T14:40:18.403Z,15.73
2019-02-18T14:42:49.840Z,15.53
2019-02-18T14:45:20.775Z,18.60
2019-02-18T14:47:51.465Z,15.83
2019-02-18T14:50:22.820Z,16.03
2019-02-18T14:52:55.996Z,15.90
2019-02-18T14:55:26.677Z,15.37
2019-02-18T14:57:57.345Z,14.30
2019-02-18T15:00:28.124Z,14.80
2019-02-18T15:02:59.634Z,14.80
2019-02-18T15:05:30.971Z,15.50
2019-02-18T15:08:02.172Z,14.67
2019-02-18T15:10:33.490Z,14.27
2019-02-18T15:13:04.526Z,14.80
2019-02-18T15:15:35.302Z,15.20
2019-02-18T15:18:06.653Z,16.97
2019-02-18T15:20:37.299Z,15.67
2019-02-18T15:23:07.420Z,15.17
2019-02-18T15:25:38.201Z,15.10
2019-02-18T15:28:08.960Z,14.07
2019-02-18T15:30:41.104Z,15.00
2019-02-18T15:33:13.097Z,14.10
2019-02-18T15:35:43.931Z,12.80
2019-02-18T15:38:14.775Z,13.10
2019-02-18T15:40:45.503Z,13.77
2019-02-18T15:43:16.416Z,15.47
2019-02-18T15:45:48.354Z,14.90
2019-02-18T15:48:19.145Z,15.23
2019-02-18T15:50:50.034Z,15.43
2019-02-18T15:53:20.834Z,13.90
2019-02-18T15:55:51.636Z,13.87
2019-02-18T15:58:23.076Z,13.13
2019-02-18T16:00:55.701Z,14.40
2019-02-18T16:03:26.393Z,13.20
2019-02-18T16:05:57.233Z,12.13
2019-02-18T16:08:27.918Z,11.03
2019-02-18T16:10:58.610Z,11.33
2019-02-18T16:13:29.458Z,10.27
2019-02-18T16:16:00.143Z,10.50
2019-02-18T16:18:30.896Z,10.77
2019-02-18T16:21:01.618Z,11.00
2019-02-18T16:23:32.745Z,11.43
2019-02-18T16:26:03.447Z,10.13
2019-02-18T16:28:34.125Z,14.13
2019-02-18T16:31:04.942Z,17.43
2019-02-18T16:33:38.688Z,25.80
2019-02-18T16:36:11.799Z,20.20
2019-02-18T16:38:42.656Z,20.73
2019-02-18T16:41:13.314Z,20.70
2019-02-18T16:43:44.156Z,27.07
2019-02-18T16:46:14.911Z,28.73
2019-02-18T16:48:46.983Z,33.67
2019-02-18T16:51:17.906Z,35.07
2019-02-18T16:53:48.755Z,29.73
2019-02-18T16:56:20.089Z,26.80
2019-02-18T16:58:50.883Z,25.63
2019-02-18T17:01:23.479Z,25.63
2019-02-18T17:03:55.208Z,27.73
2019-02-18T17:06:25.908Z,27.10
2019-02-18T17:08:57.056Z,24.27
2019-02-18T17:11:29.453Z,24.87
2019-02-18T17:14:00.441Z,23.67
2019-02-18T17:16:31.447Z,22.87
2019-02-18T17:19:02.220Z,24.93
2019-02-18T17:21:32.965Z,23.57
2019-02-18T17:24:03.671Z,20.77
2019-02-18T17:26:34.469Z,22.63
2019-02-18T17:29:05.338Z,22.00
2019-02-18T17:31:36.016Z,18.73
2019-02-18T17:34:06.709Z,19.30
2019-02-18T17:36:37.686Z,20.23
2019-02-18T17:39:09.439Z,17.37
2019-02-18T17:41:41.162Z,16.97
2019-02-18T17:44:19.814Z,19.40
2019-02-18T17:46:44.239Z,17.10
2019-02-18T17:49:15.866Z,13.97
2019-02-18T17:51:47.223Z,13.77
2019-02-18T17:54:18.592Z,13.30
2019-02-18T17:56:49.352Z,12.23
2019-02-18T17:59:20.368Z,14.57
2019-02-18T18:01:51.425Z,17.30
2019-02-18T18:04:22.197Z,17.20
2019-02-18T18:06:53.433Z,16.10
2019-02-18T18:09:24.153Z,13.30
2019-02-18T18:11:54.876Z,14.97
2019-02-18T18:14:28.632Z,14.43
2019-02-18T18:16:59.444Z,13.03
2019-02-18T18:19:30.604Z,13.37
2019-02-18T18:22:01.635Z,14.00
2019-02-18T18:24:33.049Z,14.23
2019-02-18T18:27:03.806Z,14.17
2019-02-18T18:29:34.619Z,11.47
2019-02-18T18:32:06.259Z,11.97
2019-02-18T18:34:36.902Z,11.73
2019-02-18T18:37:07.739Z,11.40
2019-02-18T18:39:39.312Z,11.43
2019-02-18T18:42:10.055Z,11.50
2019-02-18T18:44:40.855Z,12.17
2019-02-18T18:47:12.566Z,12.73
2019-02-18T18:49:43.327Z,13.87
2019-02-18T18:52:14.256Z,13.93
2019-02-18T18:54:45.821Z,14.37
2019-02-18T18:57:16.775Z,13.87
2019-02-18T18:59:47.533Z,14.17
2019-02-18T19:02:18.421Z,13.67
2019-02-18T19:04:49.166Z,13.80
2019-02-18T19:07:20.518Z,13.33
2019-02-18T19:09:51.677Z,12.73
2019-02-18T19:12:26.804Z,14.37
2019-02-18T19:14:58.207Z,12.77
2019-02-18T19:17:28.909Z,13.80
2019-02-18T19:19:59.597Z,14.63
2019-02-18T19:22:30.683Z,20.57
2019-02-18T19:25:01.501Z,18.53
2019-02-18T19:27:32.219Z,19.03
2019-02-18T19:30:03.277Z,20.27
2019-02-18T19:32:34.025Z,17.70
2019-02-18T19:35:05.670Z,18.03
2019-02-18T19:37:36.411Z,17.97
2019-02-18T19:40:12.204Z,14.43
2019-02-18T19:42:44.485Z,14.33
2019-02-18T19:45:18.549Z,13.90
2019-02-18T19:47:49.375Z,14.10
2019-02-18T19:50:20.470Z,14.30
2019-02-18T19:52:52.549Z,17.10
2019-02-18T19:55:25.389Z,16.10
2019-02-18T19:57:56.003Z,14.90
2019-02-18T20:00:26.779Z,14.70
2019-02-18T20:02:57.517Z,14.93
2019-02-18T20:05:28.280Z,14.83
2019-02-18T20:07:59.098Z,14.37
2019-02-18T20:10:29.849Z,15.57
2019-02-18T20:13:00.542Z,13.97
2019-02-18T20:15:31.352Z,13.70
2019-02-18T20:18:02.087Z,15.33
2019-02-18T20:20:32.764Z,14.57
2019-02-18T20:23:03.474Z,14.00
2019-02-18T20:25:34.942Z,13.30
2019-02-18T20:28:05.725Z,12.47
2019-02-18T20:30:36.452Z,13.20
2019-02-18T20:33:07.317Z,13.63
2019-02-18T20:35:38.195Z,13.53
2019-02-18T20:38:10.284Z,13.57
2019-02-18T20:40:41.040Z,13.30
2019-02-18T20:43:12.705Z,14.50
2019-02-18T20:45:43.921Z,13.87
2019-02-18T20:48:14.680Z,14.97
2019-02-18T20:50:46.034Z,13.83
2019-02-18T20:53:16.846Z,12.10
2019-02-18T20:55:47.800Z,11.87
2019-02-18T20:58:18.703Z,14.05
2019-02-18T21:00:51.216Z,12.20
2019-02-18T21:03:22.280Z,11.77
2019-02-18T21:05:53.263Z,12.67
2019-02-18T21:08:24.149Z,12.57
2019-02-18T21:10:54.891Z,11.83
2019-02-18T21:13:26.108Z,12.47
2019-02-18T21:15:58.266Z,13.17
2019-02-18T21:18:31.653Z,13.63
2019-02-18T21:21:03.300Z,13.63
2019-02-18T21:23:34.020Z,13.73
2019-02-18T21:26:04.702Z,14.73
2019-02-18T21:28:35.734Z,14.27
2019-02-18T21:31:09.603Z,16.00
2019-02-18T21:33:41.462Z,16.63
2019-02-18T21:36:12.172Z,17.20
2019-02-18T21:38:43.336Z,17.83
2019-02-18T21:41:14.194Z,17.27
2019-02-18T21:43:46.144Z,17.90
2019-02-18T21:46:18.190Z,17.03
2019-02-18T21:48:50.518Z,18.20
2019-02-18T21:51:21.822Z,18.43
2019-02-18T21:53:52.711Z,16.90
2019-02-18T21:56:23.446Z,18.30
2019-02-18T21:58:54.201Z,18.40
2019-02-18T22:01:25.723Z,18.70
2019-02-18T22:03:56.979Z,18.23
2019-02-18T22:06:28.245Z,19.17
2019-02-18T22:08:58.975Z,19.17
2019-02-18T22:11:29.874Z,20.63
2019-02-18T22:14:00.541Z,19.30
2019-02-18T22:16:31.648Z,20.00
2019-02-18T22:19:02.466Z,20.37
2019-02-18T22:21:33.578Z,19.37
2019-02-18T22:24:04.370Z,19.97
2019-02-18T22:26:35.188Z,19.60
2019-02-18T22:29:05.937Z,19.33
2019-02-18T22:31:36.589Z,18.10
2019-02-18T22:34:07.778Z,19.57
2019-02-18T22:36:39.139Z,18.67
2019-02-18T22:39:11.010Z,19.67
2019-02-18T22:41:41.741Z,19.40
2019-02-18T22:44:12.393Z,18.83
2019-02-18T22:46:43.054Z,18.37
2019-02-18T22:49:13.789Z,19.50
2019-02-18T22:51:44.855Z,20.00
2019-02-18T22:54:15.795Z,19.43
2019-02-18T22:56:46.689Z,20.40
2019-02-18T22:59:17.440Z,19.40
2019-02-18T23:01:48.665Z,21.73
2019-02-18T23:04:19.678Z,19.73
2019-02-18T23:06:52.230Z,19.07
2019-02-18T23:09:23.153Z,19.70
2019-02-18T23:11:53.980Z,19.47
2019-02-18T23:14:24.920Z,20.43
2019-02-18T23:16:57.409Z,20.10
2019-02-18T23:19:28.175Z,18.67
2019-02-18T23:21:58.899Z,20.27
2019-02-18T23:24:29.620Z,20.50
2019-02-18T23:27:00.413Z,19.90
2019-02-18T23:29:32.444Z,19.57
2019-02-18T23:32:03.289Z,19.53
2019-02-18T23:34:34.318Z,19.17
2019-02-18T23:37:05.310Z,20.03
2019-02-18T23:39:36.968Z,18.37
2019-02-18T23:42:07.664Z,18.40
2019-02-18T23:44:38.487Z,18.87
2019-02-18T23:47:09.133Z,18.37
2019-02-18T23:49:39.806Z,19.23
2019-02-18T23:52:10.500Z,19.60
2019-02-18T23:54:42.430Z,19.10
2019-02-18T23:57:13.442Z,19.07
2019-02-18T23:59:44.096Z,20.43
